Time;durP1;ratioP1;P1;durP2;ratioP2;P2;SDS_P1;SDS_P2;PMS_P1;PMS_P2;Temp;Humidity;BMP_temperature;BMP_pressure;BME280_temperature;BME280_humidity;BME280_pressure;Samples;Min_cycle;Max_cycle;Signal;HPM_P1;HPM_P2
2023/07/10 00:00:25;;;;;;;;;;;;;;;22.30;45.59;96263.22;6175893;28;19928;-70
2023/07/10 00:03:30;;;;;;;;;;;;;;;22.25;45.69;96254.94;6175753;28;19922;-71
2023/07/10 00:06:34;;;;;;;;;;;;;;;22.21;46.17;96264.38;6175702;28;19921;-70
2023/07/10 00:09:37;;;;;;;;;;;;;;;22.22;46.09;96257.16;6175408;28;19922;-69
2023/07/10 00:12:42;;;;;;;;;;;;;;;22.23;46.48;96248.94;6174478;28;19926;-70
2023/07/10 00:15:46;;;;;;;;;;;;;;;22.25;46.46;96241.56;6173711;28;19923;-71
2023/07/10 00:18:49;;;;;;;;;;;;;;;22.29;45.72;96234.78;6175524;28;19921;-70
2023/07/10 00:21:56;;;;;;;;;;;;;;;22.30;45.79;96235.59;6174361;28;19922;-70
2023/07/10 00:24:57;;;;;;;;;;;;;;;22.32;46.34;96223.69;6175444;28;20031;-71
2023/07/10 00:28:01;;;;;;;;;;;;;;;22.37;45.65;96223.13;6174326;28;19921;-71
2023/07/10 00:31:02;;;;;;;;;;;;;;;22.37;46.07;96221.28;6174386;28;20020;-71
2023/07/10 00:34:04;;;;;;;;;;;;;;;22.39;45.75;96219.25;6174452;28;19992;-69
2023/07/10 00:37:06;;;;;;;;;;;;;;;22.46;46.25;96219.31;6157115;28;19922;-70
2023/07/10 00:40:15;;;;;;;;;;;;;;;22.52;46.06;96228.44;6175092;28;19922;-71
2023/07/10 00:43:23;;;;;;;;;;;;;;;22.60;45.54;96231.00;6174469;28;20388;-71
2023/07/10 00:46:37;;;;;;;;;;;;;;;22.66;45.24;96230.22;6174693;28;19922;-70
2023/07/10 00:49:38;;;;;;;;;;;;;;;22.71;45.13;96238.53;6174007;28;19978;-70
2023/07/10 00:52:43;;;;;;;;;;;;;;;22.71;45.45;96237.72;6174757;28;20307;-70
2023/07/10 00:55:45;;;;;;;;;;;;;;;22.69;45.76;96235.22;6172544;28;19945;-71
2023/07/10 00:58:49;;;;;;;;;;;;;;;22.70;45.95;96238.72;6173926;28;20061;-70
2023/07/10 01:02:15;;;;;;;;;;;;;;;22.69;45.69;96237.06;6174602;28;19922;-71
2023/07/10 01:05:18;;;;;;;;;;;;;;;22.67;46.13;96231.88;6174204;28;19922;-70
2023/07/10 01:08:23;;;;;;;;;;;;;;;22.69;45.99;96229.84;6173863;28;20071;-70
2023/07/10 01:11:25;;;;;;;;;;;;;;;22.74;46.42;96232.78;6174295;28;19922;-70
2023/07/10 01:14:34;;;;;;;;;;;;;;;22.83;45.56;96238.88;6174256;28;19921;-70
2023/07/10 01:17:39;;;;;;;;;;;;;;;22.92;45.54;96237.72;6174221;28;20132;-70
2023/07/10 01:20:46;;;;;;;;;;;;;;;23.02;45.46;96232.88;6174015;28;19922;-70
2023/07/10 01:23:55;;;;;;;;;;;;;;;23.21;45.17;96235.91;6173985;28;19973;-70
2023/07/10 01:26:57;;;;;;;;;;;;;;;23.47;44.70;96232.63;6173495;28;19929;-70
2023/07/10 01:30:06;;;;;;;;;;;;;;;23.78;44.16;96234.06;6172864;28;20028;-71
2023/07/10 01:33:13;;;;;;;;;;;;;;;24.17;43.58;96236.97;6173870;28;19922;-70
2023/07/10 01:36:18;;;;;;;;;;;;;;;24.60;42.92;96236.75;6172986;28;20068;-71
2023/07/10 01:39:40;;;;;;;;;;;;;;;25.01;42.22;96246.53;6173420;28;19944;-71
2023/07/10 01:42:43;;;;;;;;;;;;;;;25.41;41.63;96245.75;6173180;28;20056;-70
2023/07/10 01:45:48;;;;;;;;;;;;;;;25.67;41.75;96242.19;6172288;28;19929;-70
2023/07/10 01:48:51;;;;;;;;;;;;;;;25.84;41.27;96248.81;6172826;28;19966;-71
2023/07/10 01:51:57;;;;;;;;;;;;;;;26.01;40.95;96251.06;6173196;28;20027;-71
2023/07/10 01:55:03;;;;;;;;;;;;;;;26.20;40.64;96245.63;6173443;28;20316;-71
2023/07/10 01:58:04;;;;;;;;;;;;;;;26.38;41.20;96236.84;6171384;28;20518;-71
2023/07/10 02:01:05;;;;;;;;;;;;;;;26.51;40.48;96241.38;6171678;28;19929;-69
2023/07/10 02:04:07;;;;;;;;;;;;;;;26.61;40.34;96241.75;6172432;28;20016;-71
2023/07/10 02:07:13;;;;;;;;;;;;;;;26.63;40.49;96238.81;6173012;28;20169;-71
2023/07/10 02:10:16;;;;;;;;;;;;;;;26.51;40.86;96240.56;6173105;28;19922;-71
2023/07/10 02:13:19;;;;;;;;;;;;;;;26.39;40.78;96233.09;6172510;28;19921;-71
2023/07/10 02:16:20;;;;;;;;;;;;;;;26.16;41.81;96240.88;6172573;28;20056;-70
2023/07/10 02:19:23;;;;;;;;;;;;;;;25.88;42.08;96236.59;6173060;28;20392;-71
2023/07/10 02:22:27;;;;;;;;;;;;;;;25.68;42.27;96236.63;6172833;28;20015;-71
2023/07/10 02:25:28;;;;;;;;;;;;;;;25.52;42.23;96237.88;6172290;28;19945;-71
2023/07/10 02:28:34;;;;;;;;;;;;;;;25.51;41.89;96236.22;6172647;28;20307;-71
2023/07/10 02:31:38;;;;;;;;;;;;;;;25.54;42.04;96235.81;6172435;28;19922;-71
2023/07/10 02:34:42;;;;;;;;;;;;;;;25.50;42.25;96234.56;6172370;28;19922;-71
2023/07/10 02:37:43;;;;;;;;;;;;;;;25.45;41.88;96225.44;6171593;28;19974;-71
2023/07/10 02:40:44;;;;;;;;;;;;;;;25.50;42.20;96234.56;6171896;28;19953;-71
2023/07/10 02:43:48;;;;;;;;;;;;;;;25.58;42.08;96230.00;6171740;28;19917;-71
2023/07/10 02:46:51;;;;;;;;;;;;;;;25.66;41.58;96237.88;6171605;28;19922;-71
2023/07/10 02:49:54;;;;;;;;;;;;;;;25.74;41.42;96240.34;6171976;28;19918;-70
2023/07/10 02:52:55;;;;;;;;;;;;;;;25.83;41.23;96244.50;6175130;28;19926;-71
2023/07/10 02:55:58;;;;;;;;;;;;;;;25.90;41.36;96248.00;6176756;28;20008;-71
2023/07/10 02:59:02;;;;;;;;;;;;;;;26.00;40.91;96262.91;6176381;28;19921;-70
2023/07/10 03:02:03;;;;;;;;;;;;;;;26.08;40.64;96268.91;6176759;28;20016;-70
2023/07/10 03:05:06;;;;;;;;;;;;;;;26.20;40.67;96260.97;6177117;28;19926;-72
2023/07/10 03:08:13;;;;;;;;;;;;;;;26.28;40.18;96251.81;6175134;28;19922;-71
2023/07/10 03:11:15;;;;;;;;;;;;;;;26.34;40.66;96251.78;6174957;28;20380;-71
2023/07/10 03:14:16;;;;;;;;;;;;;;;26.41;40.50;96262.53;6175557;28;19929;-72
2023/07/10 03:17:20;;;;;;;;;;;;;;;26.50;40.74;96255.06;6175666;28;19922;-71
2023/07/10 03:20:24;;;;;;;;;;;;;;;26.57;40.40;96245.91;6176356;28;19922;-71
2023/07/10 03:23:29;;;;;;;;;;;;;;;26.67;40.01;96256.25;6176550;28;19922;-70
2023/07/10 03:26:32;;;;;;;;;;;;;;;26.77;40.32;96255.78;6176198;28;19917;-70
2023/07/10 03:29:39;;;;;;;;;;;;;;;26.86;40.14;96255.31;6176455;28;19922;-72
2023/07/10 03:32:41;;;;;;;;;;;;;;;26.98;39.74;96257.31;6176152;28;20331;-71
2023/07/10 03:35:42;;;;;;;;;;;;;;;27.09;39.59;96265.53;6175866;28;20054;-72
2023/07/10 03:38:44;;;;;;;;;;;;;;;27.19;39.75;96258.84;6175681;28;20293;-70
2023/07/10 03:41:51;;;;;;;;;;;;;;;27.36;39.15;96259.16;6176274;28;19928;-71
2023/07/10 03:44:54;;;;;;;;;;;;;;;27.46;39.17;96259.44;6174809;28;19922;-71
2023/07/10 03:47:59;;;;;;;;;;;;;;;27.57;38.98;96272.25;6175952;28;19922;-71
2023/07/10 03:51:02;;;;;;;;;;;;;;;27.65;38.69;96266.56;6174365;28;19922;-72
2023/07/10 03:54:04;;;;;;;;;;;;;;;27.74;38.85;96273.38;6175586;28;19922;-71
2023/07/10 03:57:08;;;;;;;;;;;;;;;27.85;38.47;96257.47;6175947;28;19922;-71
2023/07/10 04:00:12;;;;;;;;;;;;;;;27.94;38.68;96262.38;6175453;28;19925;-71
2023/07/10 04:03:21;;;;;;;;;;;;;;;28.02;38.44;96253.13;6174648;28;19926;-72
2023/07/10 04:06:24;;;;;;;;;;;;;;;28.11;38.48;96257.22;6174340;28;19918;-71
2023/07/10 04:09:32;;;;;;;;;;;;;;;28.25;38.40;96257.03;6175614;28;19922;-72
2023/07/10 04:12:34;;;;;;;;;;;;;;;28.36;38.01;96248.16;6175635;28;20012;-71
2023/07/10 04:15:38;;;;;;;;;;;;;;;28.48;37.90;96246.41;6175308;28;19958;-73
2023/07/10 04:18:42;;;;;;;;;;;;;;;28.60;37.70;96249.97;6175273;28;19944;-72
2023/07/10 04:21:46;;;;;;;;;;;;;;;28.72;37.74;96249.19;6174376;28;19922;-71
2023/07/10 04:24:47;;;;;;;;;;;;;;;28.85;37.34;96251.72;6174431;28;20053;-71
2023/07/10 04:27:50;;;;;;;;;;;;;;;29.06;37.25;96253.94;6174414;28;19922;-72
2023/07/10 04:30:53;;;;;;;;;;;;;;;29.15;37.17;96248.19;6173433;28;19929;-72
2023/07/10 04:33:58;;;;;;;;;;;;;;;29.26;37.06;96241.97;6175044;28;19922;-71
2023/07/10 04:37:03;;;;;;;;;;;;;;;29.40;36.66;96246.13;6174392;28;19980;-71
2023/07/10 04:40:07;;;;;;;;;;;;;;;29.57;36.56;96248.13;6174706;28;19929;-71
2023/07/10 04:43:08;;;;;;;;;;;;;;;29.80;36.16;96248.16;6174540;28;20319;-72
2023/07/10 04:46:11;;;;;;;;;;;;;;;30.12;35.50;96240.50;6174679;28;19929;-70
2023/07/10 04:49:12;;;;;;;;;;;;;;;31.43;34.02;96247.13;6174286;28;19914;-70
2023/07/10 04:52:13;;;;;;;;;;;;;;;34.35;30.13;96251.97;6173078;28;20032;-72
2023/07/10 04:55:15;;;;;;;;;;;;;;;37.69;26.65;96261.38;6174010;28;20825;-72
2023/07/10 04:58:18;;;;;;;;;;;;;;;40.56;24.50;96275.56;6174477;28;19922;-73
2023/07/10 05:01:23;;;;;;;;;;;;;;;43.06;23.17;96276.09;6173763;28;19929;-72
2023/07/10 05:04:24;;;;;;;;;;;;;;;45.72;20.95;96280.59;6173897;28;19929;-71
2023/07/10 05:07:29;;;;;;;;;;;;;;;48.31;17.70;96282.06;6173650;28;19922;-71
2023/07/10 05:10:31;;;;;;;;;;;;;;;50.28;15.89;96281.75;6174056;28;19928;-71
2023/07/10 05:13:35;;;;;;;;;;;;;;;51.85;15.64;96285.34;6174136;28;20303;-72
2023/07/10 05:16:40;;;;;;;;;;;;;;;53.72;14.91;96290.50;6173760;28;20071;-71
2023/07/10 05:19:44;;;;;;;;;;;;;;;55.25;13.94;96281.44;6174697;28;19922;-72
2023/07/10 05:22:46;;;;;;;;;;;;;;;56.02;10.33;96286.41;6173720;28;19932;-72
2023/07/10 05:25:58;;;;;;;;;;;;;;;57.05;13.37;96284.88;6194450;28;19928;-72
2023/07/10 05:29:00;;;;;;;;;;;;;;;58.10;12.89;96290.94;6202714;28;19942;-71
2023/07/10 05:32:06;;;;;;;;;;;;;;;58.88;11.92;96293.78;6205697;28;19925;-72
2023/07/10 08:54:36;;;;;;;;;;;;;;;60.97;4.62;96137.38;6178068;28;19926;-71
2023/07/10 08:57:42;;;;;;;;;;;;;;;60.14;4.53;96128.22;6179740;29;19953;-72
2023/07/10 09:00:44;;;;;;;;;;;;;;;59.35;4.77;96129.22;6172527;28;19989;-72
2023/07/10 09:03:51;;;;;;;;;;;;;;;58.20;5.54;96117.19;6150764;28;20400;-71
2023/07/10 09:06:56;;;;;;;;;;;;;;;57.95;4.86;96125.28;6150510;28;19922;-72
2023/07/10 09:10:01;;;;;;;;;;;;;;;56.90;4.51;96119.44;6149189;28;19923;-73
2023/07/10 09:13:13;;;;;;;;;;;;;;;56.07;4.63;96108.13;6148953;28;20020;-73
2023/07/10 09:16:19;;;;;;;;;;;;;;;55.50;4.63;96114.94;6149012;28;19922;-71
2023/07/10 09:19:25;;;;;;;;;;;;;;;55.90;4.81;96126.78;6150241;28;19922;-72
2023/07/10 09:22:34;;;;;;;;;;;;;;;54.81;4.91;96102.34;6149884;28;20336;-71
2023/07/10 09:25:39;;;;;;;;;;;;;;;53.91;5.62;96112.09;6149735;28;19922;-71
2023/07/10 09:28:49;;;;;;;;;;;;;;;53.55;5.91;96112.03;6149560;28;20403;-72
2023/07/10 09:31:50;;;;;;;;;;;;;;;53.06;5.59;96107.88;6148955;28;19922;-71
2023/07/10 09:34:58;;;;;;;;;;;;;;;53.11;5.77;96104.66;6149696;28;19926;-74
2023/07/10 09:38:02;;;;;;;;;;;;;;;53.16;5.65;96107.06;6150115;28;19918;-73
2023/07/10 09:41:10;;;;;;;;;;;;;;;54.61;4.80;96118.88;6149424;28;19923;-74
2023/07/10 09:44:17;;;;;;;;;;;;;;;53.56;4.71;96113.63;6149602;28;20404;-73
2023/07/10 09:47:23;;;;;;;;;;;;;;;52.10;5.29;96094.81;6149334;28;19933;-72
2023/07/10 09:50:31;;;;;;;;;;;;;;;52.35;4.85;96094.19;6148003;28;19929;-73
2023/07/10 09:53:45;;;;;;;;;;;;;;;51.93;4.38;96101.84;6148777;28;19962;-71
2023/07/10 09:56:51;;;;;;;;;;;;;;;51.61;4.23;96093.94;6132349;28;19922;-72
2023/07/10 09:59:59;;;;;;;;;;;;;;;51.41;4.35;96089.72;6149084;28;19919;-72
2023/07/10 10:03:14;;;;;;;;;;;;;;;51.35;4.44;96114.50;6148221;28;20388;-71
2023/07/10 10:06:33;;;;;;;;;;;;;;;50.56;4.90;96101.41;6148288;28;19922;-72
2023/07/10 10:09:38;;;;;;;;;;;;;;;50.25;4.87;96086.59;6149012;28;19928;-71
2023/07/10 10:12:48;;;;;;;;;;;;;;;51.62;4.67;96095.53;6148860;28;19929;-73
2023/07/10 10:16:06;;;;;;;;;;;;;;;52.10;4.70;96113.66;6148776;28;20257;-73
2023/07/10 10:19:15;;;;;;;;;;;;;;;51.07;4.85;96114.94;6148648;28;20452;-72
2023/07/10 10:22:16;;;;;;;;;;;;;;;50.41;5.22;96108.00;6148168;28;19922;-71
2023/07/10 10:25:22;;;;;;;;;;;;;;;50.35;5.19;96101.13;6148667;28;20419;-72
2023/07/10 10:28:39;;;;;;;;;;;;;;;50.67;5.26;96091.19;6148415;28;19929;-72
2023/07/10 10:31:50;;;;;;;;;;;;;;;50.20;5.75;96086.91;6148419;28;19922;-71
2023/07/10 10:35:01;;;;;;;;;;;;;;;48.38;6.74;96111.22;6148290;28;19985;-71
2023/07/10 10:38:08;;;;;;;;;;;;;;;47.38;7.20;96089.94;6147910;28;20411;-71
2023/07/10 10:41:32;;;;;;;;;;;;;;;47.03;7.13;96101.72;6148369;28;19922;-71
2023/07/10 10:44:49;;;;;;;;;;;;;;;46.64;7.40;96084.63;6131280;28;19977;-71
2023/07/10 10:47:52;;;;;;;;;;;;;;;47.06;7.21;96101.03;6148104;28;19922;-71
2023/07/10 10:50:56;;;;;;;;;;;;;;;47.13;7.07;96095.63;6148304;28;19929;-73
2023/07/10 10:54:18;;;;;;;;;;;;;;;47.34;7.01;96094.63;6148209;28;19922;-71
2023/07/10 10:57:34;;;;;;;;;;;;;;;46.41;7.35;96087.13;6148305;28;19927;-70
2023/07/10 11:01:00;;;;;;;;;;;;;;;45.79;7.60;96077.97;6147944;28;20308;-71
2023/07/10 11:04:13;;;;;;;;;;;;;;;46.52;7.29;96081.91;6148117;28;19923;-71
2023/07/10 11:07:19;;;;;;;;;;;;;;;46.10;7.44;96093.28;6148183;28;19922;-72
2023/07/10 11:10:28;;;;;;;;;;;;;;;45.71;7.63;96087.22;6148120;28;19923;-72
2023/07/10 11:13:32;;;;;;;;;;;;;;;45.36;7.68;96098.72;6150374;28;20400;-73
2023/07/10 11:16:38;;;;;;;;;;;;;;;45.27;7.44;96084.09;6152570;28;19922;-72
2023/07/10 11:19:48;;;;;;;;;;;;;;;45.34;7.52;96084.34;6152605;28;19923;-72
2023/07/10 11:22:56;;;;;;;;;;;;;;;44.93;7.26;96097.16;6152413;28;20391;-74
2023/07/10 11:26:11;;;;;;;;;;;;;;;44.49;7.38;96088.31;6152462;28;19922;-72
2023/07/10 11:29:27;;;;;;;;;;;;;;;43.27;8.40;96083.28;6152571;28;20021;-71
2023/07/10 11:32:29;;;;;;;;;;;;;;;42.63;8.58;96096.16;6151888;28;20296;-74
2023/07/10 11:35:31;;;;;;;;;;;;;;;41.93;9.23;96083.00;6152201;28;19926;-72
2023/07/10 11:38:34;;;;;;;;;;;;;;;42.41;8.87;96091.56;6151971;28;20016;-72
2023/07/10 11:41:44;;;;;;;;;;;;;;;42.63;8.72;96085.88;6152378;28;19937;-71
2023/07/10 11:44:59;;;;;;;;;;;;;;;43.09;8.66;96095.50;6151868;28;19926;-71
2023/07/10 11:48:27;;;;;;;;;;;;;;;42.87;8.80;96095.69;6151966;28;20436;-71
2023/07/10 11:51:35;;;;;;;;;;;;;;;42.68;9.05;96093.22;6150850;28;20376;-73
2023/07/10 11:54:46;;;;;;;;;;;;;;;42.77;9.18;96078.28;6151372;28;20397;-71
2023/07/10 11:58:10;;;;;;;;;;;;;;;42.77;8.92;96080.22;6151990;28;20384;-71
2023/07/10 12:01:17;;;;;;;;;;;;;;;42.85;8.72;96082.19;6151109;28;19924;-72
2023/07/10 12:04:22;;;;;;;;;;;;;;;42.70;9.14;96080.69;6151656;28;20300;-72
2023/07/10 12:07:26;;;;;;;;;;;;;;;42.93;8.91;96083.31;6151736;28;19939;-73
2023/07/10 12:10:32;;;;;;;;;;;;;;;42.76;8.96;96100.75;6151485;28;19922;-71
2023/07/10 12:13:36;;;;;;;;;;;;;;;42.38;8.74;96085.56;6151370;28;19922;-72
2023/07/10 12:16:52;;;;;;;;;;;;;;;42.40;8.89;96088.00;6151528;28;19929;-72
2023/07/10 12:19:59;;;;;;;;;;;;;;;42.27;8.83;96077.88;6151111;28;20009;-72
2023/07/10 12:23:05;;;;;;;;;;;;;;;42.34;8.81;96090.09;6151240;28;19930;-72
2023/07/10 12:26:15;;;;;;;;;;;;;;;42.12;9.33;96084.66;6150097;28;20073;-72
2023/07/10 12:29:17;;;;;;;;;;;;;;;42.12;9.57;96087.41;6133893;28;20385;-72
2023/07/10 12:32:18;;;;;;;;;;;;;;;42.04;9.36;96083.53;6151475;28;19922;-72
2023/07/10 12:35:23;;;;;;;;;;;;;;;41.82;9.85;96084.41;6151190;28;20001;-72
2023/07/10 12:38:30;;;;;;;;;;;;;;;41.78;9.84;96077.88;6150992;28;19922;-71
2023/07/10 12:41:38;;;;;;;;;;;;;;;41.82;10.03;96076.09;6150709;28;19930;-71
2023/07/10 12:44:43;;;;;;;;;;;;;;;41.82;9.48;96089.91;6150353;28;19922;-72
2023/07/10 12:48:05;;;;;;;;;;;;;;;41.62;9.57;96084.97;6150741;28;19923;-71
2023/07/10 12:51:16;;;;;;;;;;;;;;;41.26;9.79;96072.09;6151154;28;20316;-72
2023/07/10 12:54:20;;;;;;;;;;;;;;;41.12;10.04;96077.69;6149987;29;19929;-73
2023/07/10 12:57:29;;;;;;;;;;;;;;;41.17;10.64;96074.00;6148650;28;20024;-73
2023/07/10 13:00:47;;;;;;;;;;;;;;;41.01;10.35;96082.59;6150480;28;20399;-71
2023/07/10 13:04:05;;;;;;;;;;;;;;;40.67;10.26;96083.16;6150129;28;20033;-70
2023/07/10 13:07:18;;;;;;;;;;;;;;;40.33;10.59;96078.13;6149244;28;19922;-72
2023/07/10 13:10:23;;;;;;;;;;;;;;;40.28;10.75;96076.28;6150123;28;20008;-73
2023/07/10 13:13:28;;;;;;;;;;;;;;;40.21;11.00;96078.69;6150237;28;19958;-71
2023/07/10 13:16:32;;;;;;;;;;;;;;;39.94;11.32;96083.03;6150280;28;19928;-71
2023/07/10 13:19:38;;;;;;;;;;;;;;;39.90;11.18;96084.00;6133364;28;19922;-72
2023/07/10 13:22:46;;;;;;;;;;;;;;;39.90;11.35;96075.72;6149599;28;19918;-71
2023/07/10 13:25:47;;;;;;;;;;;;;;;39.98;11.62;96077.75;6149238;28;19929;-72
2023/07/10 13:28:51;;;;;;;;;;;;;;;39.71;11.98;96082.09;6149202;28;19927;-71
2023/07/10 13:31:54;;;;;;;;;;;;;;;39.60;12.12;96082.63;6149602;28;19932;-72
2023/07/10 13:34:58;;;;;;;;;;;;;;;39.70;12.36;96087.94;6149770;28;20392;-72
2023/07/10 13:38:05;;;;;;;;;;;;;;;39.85;12.25;96078.56;6149785;28;19926;-72
2023/07/10 13:41:07;;;;;;;;;;;;;;;40.05;12.46;96083.66;6149676;28;19922;-72
2023/07/10 13:44:13;;;;;;;;;;;;;;;39.89;12.63;96085.09;6149374;28;20309;-72
2023/07/10 13:47:25;;;;;;;;;;;;;;;39.79;12.66;96090.81;6149143;28;19922;-72
2023/07/10 13:50:29;;;;;;;;;;;;;;;39.62;12.49;96083.94;6149026;28;19941;-71
2023/07/10 13:53:32;;;;;;;;;;;;;;;39.13;12.75;96088.13;6149101;28;19926;-72
2023/07/10 13:56:37;;;;;;;;;;;;;;;38.98;12.96;96082.88;6149010;28;19965;-71
2023/07/10 13:59:43;;;;;;;;;;;;;;;38.88;13.20;96083.06;6149181;28;19922;-72
2023/07/10 14:02:51;;;;;;;;;;;;;;;38.92;13.77;96089.56;6147630;28;19922;-72
2023/07/10 14:05:57;;;;;;;;;;;;;;;38.74;13.79;96083.78;6148618;28;19922;-72
2023/07/10 14:09:19;;;;;;;;;;;;;;;38.39;14.34;96083.16;6148916;28;19984;-72
2023/07/10 14:12:20;;;;;;;;;;;;;;;38.15;14.14;96087.91;6138578;28;20339;-72
2023/07/10 14:15:21;;;;;;;;;;;;;;;37.98;14.91;96085.63;6131618;28;19926;-72
2023/07/10 14:18:28;;;;;;;;;;;;;;;37.91;14.81;96083.22;6148580;29;19922;-72
2023/07/10 14:21:31;;;;;;;;;;;;;;;37.89;14.94;96084.63;6148722;28;19923;-71
2023/07/10 14:24:32;;;;;;;;;;;;;;;38.03;14.38;96079.28;6146755;28;19922;-72
2023/07/10 14:27:41;;;;;;;;;;;;;;;38.06;14.48;96086.94;6148975;28;19926;-72
2023/07/10 14:30:47;;;;;;;;;;;;;;;38.02;14.51;96085.84;6148767;28;20008;-71
2023/07/10 14:33:48;;;;;;;;;;;;;;;37.96;14.35;96080.47;6147738;28;19953;-72
2023/07/10 14:36:52;;;;;;;;;;;;;;;37.84;14.36;96088.25;6148533;28;19929;-72
2023/07/10 14:39:54;;;;;;;;;;;;;;;37.94;14.35;96077.19;6147896;28;19918;-73
2023/07/10 14:42:57;;;;;;;;;;;;;;;37.73;14.82;96084.00;6147589;28;19923;-72
2023/07/10 14:46:02;;;;;;;;;;;;;;;37.51;15.30;96085.34;6148296;28;19922;-72
2023/07/10 14:49:13;;;;;;;;;;;;;;;37.35;15.61;96075.59;6147598;28;19922;-73
2023/07/10 14:52:19;;;;;;;;;;;;;;;36.97;15.32;96078.13;6147980;28;19981;-72
2023/07/10 14:55:26;;;;;;;;;;;;;;;36.79;15.40;96084.28;6148511;28;19922;-72
2023/07/10 14:58:35;;;;;;;;;;;;;;;36.64;15.85;96077.00;6148186;28;19930;-71
2023/07/10 15:01:36;;;;;;;;;;;;;;;36.32;16.09;96080.19;6148283;28;20324;-71
2023/07/10 15:04:37;;;;;;;;;;;;;;;36.09;16.69;96077.03;6147037;28;20381;-72
2023/07/10 15:07:41;;;;;;;;;;;;;;;35.87;16.84;96088.34;6147427;28;20013;-72
2023/07/10 15:10:47;;;;;;;;;;;;;;;35.85;16.90;96076.03;6148180;28;19982;-72
2023/07/10 15:13:50;;;;;;;;;;;;;;;35.64;16.87;96081.59;6147814;28;19922;-70
2023/07/10 15:16:56;;;;;;;;;;;;;;;35.68;17.58;96079.09;6131244;28;19922;-71
2023/07/10 15:20:02;;;;;;;;;;;;;;;35.52;17.65;96083.75;6147964;28;19918;-71
2023/07/10 15:23:04;;;;;;;;;;;;;;;35.46;17.60;96084.88;6147752;28;19922;-72
2023/07/10 15:26:06;;;;;;;;;;;;;;;35.24;17.80;96088.72;6147345;28;19929;-72
2023/07/10 15:29:10;;;;;;;;;;;;;;;35.22;17.98;96088.22;6147129;28;19930;-72
2023/07/10 15:32:15;;;;;;;;;;;;;;;35.14;18.19;96087.94;6146754;28;19929;-71
2023/07/10 15:35:20;;;;;;;;;;;;;;;34.90;18.66;96093.09;6148183;29;19926;-72
2023/07/10 15:38:23;;;;;;;;;;;;;;;34.84;18.78;96084.91;6147390;28;19926;-72
2023/07/10 15:41:29;;;;;;;;;;;;;;;34.64;18.98;96096.63;6147840;28;20532;-72
2023/07/10 15:44:33;;;;;;;;;;;;;;;34.35;19.33;96099.03;6147695;28;20326;-72
2023/07/10 15:47:36;;;;;;;;;;;;;;;34.16;19.55;96106.06;6146618;28;19929;-71
2023/07/10 15:50:42;;;;;;;;;;;;;;;33.93;19.78;96096.41;6147689;28;20061;-73
2023/07/10 15:53:44;;;;;;;;;;;;;;;33.72;20.13;96098.25;6146699;28;20424;-71
2023/07/10 15:56:48;;;;;;;;;;;;;;;33.67;20.63;96098.22;6147425;28;20408;-72
2023/07/10 15:59:49;;;;;;;;;;;;;;;33.42;20.47;96096.94;6148383;28;20376;-70
2023/07/10 16:02:54;;;;;;;;;;;;;;;33.22;20.63;96105.81;6151076;28;19922;-70
2023/07/10 16:05:59;;;;;;;;;;;;;;;33.28;20.34;96106.66;6151162;28;20021;-72
2023/07/10 16:09:04;;;;;;;;;;;;;;;33.14;21.01;96108.19;6151515;28;19923;-72
2023/07/10 16:12:13;;;;;;;;;;;;;;;32.96;20.97;96115.66;6151586;28;20333;-72
2023/07/10 16:15:18;;;;;;;;;;;;;;;32.79;21.46;96109.53;6151549;28;19977;-71
2023/07/10 16:18:25;;;;;;;;;;;;;;;32.59;20.98;96111.00;6151614;28;19926;-72
2023/07/10 16:21:26;;;;;;;;;;;;;;;32.44;21.04;96108.06;6150414;28;19944;-70
2023/07/10 16:24:32;;;;;;;;;;;;;;;32.28;21.85;96119.91;6151268;28;19922;-73
2023/07/10 16:27:38;;;;;;;;;;;;;;;32.03;22.50;96118.53;6151749;28;19934;-72
2023/07/10 16:30:44;;;;;;;;;;;;;;;31.75;23.17;96120.31;6151279;28;19918;-71
2023/07/10 16:33:50;;;;;;;;;;;;;;;31.52;23.36;96117.81;6151330;28;20345;-73
2023/07/10 16:36:51;;;;;;;;;;;;;;;31.30;24.22;96124.00;6150388;28;19926;-72
2023/07/10 16:39:55;;;;;;;;;;;;;;;31.09;24.38;96124.78;6149470;28;19922;-72
2023/07/10 16:43:08;;;;;;;;;;;;;;;30.87;25.06;96133.66;6151085;28;19925;-73
2023/07/10 16:46:15;;;;;;;;;;;;;;;30.66;25.62;96123.50;6150955;28;19922;-72
2023/07/10 16:49:16;;;;;;;;;;;;;;;30.48;25.71;96123.69;6150793;28;19923;-72
2023/07/10 16:52:17;;;;;;;;;;;;;;;30.31;26.46;96124.47;6149708;28;20381;-73
2023/07/10 16:55:24;;;;;;;;;;;;;;;30.15;26.68;96125.22;6150561;28;19926;-73
2023/07/10 16:58:27;;;;;;;;;;;;;;;30.00;26.88;96133.88;6132798;29;19922;-73
2023/07/10 17:01:29;;;;;;;;;;;;;;;29.86;27.47;96127.88;6149653;28;19929;-73
2023/07/10 17:04:37;;;;;;;;;;;;;;;29.75;27.98;96142.28;6150250;28;19929;-73
2023/07/10 17:07:41;;;;;;;;;;;;;;;29.63;28.00;96138.78;6149784;28;19922;-72
2023/07/10 17:10:46;;;;;;;;;;;;;;;29.57;27.96;96137.00;6149832;28;20392;-71
2023/07/10 17:13:48;;;;;;;;;;;;;;;29.51;28.11;96136.06;6149860;29;19922;-73
2023/07/10 17:16:51;;;;;;;;;;;;;;;29.48;27.81;96137.34;6150237;28;20420;-72
2023/07/10 17:19:53;;;;;;;;;;;;;;;29.49;27.73;96149.84;6149724;28;19929;-71
2023/07/10 17:22:53;;;;;;;;;;;;;;;29.58;27.31;96154.91;6149521;28;19926;-72
2023/07/10 17:25:57;;;;;;;;;;;;;;;29.57;27.51;96161.41;6149075;28;20473;-71
2023/07/10 17:29:08;;;;;;;;;;;;;;;29.53;27.38;96155.63;6149849;28;19928;-72
2023/07/10 17:32:14;;;;;;;;;;;;;;;29.52;27.28;96149.34;6149665;28;19922;-71
2023/07/10 17:35:19;;;;;;;;;;;;;;;29.69;26.47;96154.09;6148401;28;20062;-71
2023/07/10 17:38:20;;;;;;;;;;;;;;;29.86;25.72;96149.59;6149715;28;19928;-72
2023/07/10 17:41:23;;;;;;;;;;;;;;;30.03;25.38;96154.28;6131568;29;20400;-73
2023/07/10 17:44:27;;;;;;;;;;;;;;;29.97;25.24;96159.59;6148615;28;19922;-72
2023/07/10 17:47:33;;;;;;;;;;;;;;;29.89;25.46;96154.53;6149494;28;19918;-72
2023/07/10 17:50:36;;;;;;;;;;;;;;;29.81;25.39;96163.06;6149740;28;19954;-73
2023/07/10 17:53:38;;;;;;;;;;;;;;;29.77;25.58;96165.41;6148648;28;20479;-72
2023/07/10 17:56:39;;;;;;;;;;;;;;;29.70;25.58;96155.75;6148737;28;19974;-71
2023/07/10 17:59:42;;;;;;;;;;;;;;;29.58;25.87;96157.63;6148771;28;20323;-72
2023/07/10 18:02:48;;;;;;;;;;;;;;;29.42;26.43;96162.69;6149201;28;20388;-72
2023/07/10 18:05:51;;;;;;;;;;;;;;;29.28;26.41;96161.28;6149154;28;19922;-72
2023/07/10 18:08:54;;;;;;;;;;;;;;;29.16;27.07;96157.72;6148218;28;20025;-72
2023/07/10 18:11:56;;;;;;;;;;;;;;;29.07;27.30;96151.81;6148373;28;20065;-71
2023/07/10 18:15:00;;;;;;;;;;;;;;;28.96;27.05;96156.16;6148691;28;19922;-71
2023/07/10 18:18:08;;;;;;;;;;;;;;;28.83;27.81;96156.38;6148831;28;19929;-74
2023/07/10 18:21:24;;;;;;;;;;;;;;;28.69;28.14;96150.31;6149032;28;19918;-70
2023/07/10 18:24:27;;;;;;;;;;;;;;;28.59;28.40;96150.91;6148308;28;20021;-71
2023/07/10 18:27:30;;;;;;;;;;;;;;;28.48;28.83;96148.97;6149073;28;19918;-72
2023/07/10 18:30:31;;;;;;;;;;;;;;;28.34;29.29;96142.06;6147894;28;20439;-72
2023/07/10 18:33:33;;;;;;;;;;;;;;;28.21;29.54;96143.88;6147360;28;19922;-72
2023/07/10 18:36:39;;;;;;;;;;;;;;;28.10;29.59;96152.75;6148429;28;19922;-71
2023/07/10 18:39:43;;;;;;;;;;;;;;;28.01;29.92;96143.31;6147906;28;19993;-70
2023/07/10 18:42:47;;;;;;;;;;;;;;;27.93;30.01;96146.31;6148453;28;19923;-71
2023/07/10 18:45:52;;;;;;;;;;;;;;;27.88;30.08;96146.19;6148116;28;19922;-71
2023/07/10 18:48:54;;;;;;;;;;;;;;;27.83;31.27;96146.03;6146016;28;19959;-71
2023/07/10 18:51:58;;;;;;;;;;;;;;;27.76;30.70;96146.91;6148043;28;19922;-71
2023/07/10 18:55:01;;;;;;;;;;;;;;;27.71;30.48;96149.47;6148644;28;20296;-71
2023/07/10 18:58:18;;;;;;;;;;;;;;;27.62;30.81;96148.09;6148411;28;19922;-71
2023/07/10 19:01:23;;;;;;;;;;;;;;;27.52;30.68;96150.50;6148090;28;20037;-71
2023/07/10 19:04:29;;;;;;;;;;;;;;;27.44;30.97;96150.81;6148269;28;20413;-71
2023/07/10 19:07:30;;;;;;;;;;;;;;;27.37;30.87;96147.31;6147728;28;20340;-70
2023/07/10 19:10:31;;;;;;;;;;;;;;;27.30;31.30;96142.81;6147256;28;19924;-70
2023/07/10 19:13:34;;;;;;;;;;;;;;;27.29;31.68;96143.06;6147728;28;19929;-72
2023/07/10 19:16:37;;;;;;;;;;;;;;;27.29;31.32;96146.56;6148123;28;19929;-71
2023/07/10 19:19:44;;;;;;;;;;;;;;;27.29;31.31;96146.56;6147565;28;19934;-72
2023/07/10 19:22:50;;;;;;;;;;;;;;;27.28;31.62;96142.19;6147782;28;20405;-71
2023/07/10 19:25:57;;;;;;;;;;;;;;;27.25;31.81;96142.66;6148060;28;19929;-70
2023/07/10 19:28:58;;;;;;;;;;;;;;;27.24;31.51;96135.59;6147698;28;20281;-71